Time;durP1;ratioP1;P1;durP2;ratioP2;P2;SDS_P1;SDS_P2;PMS_P1;PMS_P2;Temp;Humidity;BMP_temperature;BMP_pressure;BME280_temperature;BME280_humidity;BME280_pressure;Samples;Min_cycle;Max_cycle;Signal;HPM_P1;HPM_P2
2023/03/01 00:00:10;;;;;;;12.02;8.70;;;2.80;98.50;3.20;99995.00;;;;343955;28;90885;-91
2023/03/01 00:00:22;;;;;;;11.68;9.07;;;2.80;98.50;3.10;100001.00;;;;344188;28;83559;-91
2023/03/01 00:00:34;;;;;;;11.80;9.20;;;2.80;98.40;3.10;99996.00;;;;342829;28;91557;-91
2023/03/01 00:00:46;;;;;;;13.27;9.77;;;2.70;98.40;3.10;99992.00;;;;344236;28;84309;-91
2023/03/01 00:01:07;;;;;;;14.60;9.80;;;2.80;98.40;3.20;99994.00;;;;344130;28;91361;-91
2023/03/01 00:01:21;;;;;;;12.50;8.80;;;2.80;98.40;3.20;99995.00;;;;343073;28;84988;-91
2023/03/01 00:01:33;;;;;;;12.73;9.10;;;2.80;98.50;3.20;100004.00;;;;339898;28;92105;-91
2023/03/01 00:01:45;;;;;;;13.18;9.77;;;2.80;98.40;3.00;100010.00;;;;340309;28;85253;-92
2023/03/01 00:01:57;;;;;;;13.27;9.32;;;2.70;98.30;3.10;100001.00;;;;342645;28;91959;-92
2023/03/01 00:02:09;;;;;;;12.88;9.60;;;2.70;98.50;3.00;100012.00;;;;344316;28;83436;-92
2023/03/01 00:02:21;;;;;;;13.82;9.95;;;2.70;98.30;3.10;100000.00;;;;343991;28;90783;-91
2023/03/01 00:02:33;;;;;;;14.65;9.82;;;2.70;98.30;3.00;99996.00;;;;341690;28;83690;-91
2023/03/01 00:02:45;;;;;;;14.48;9.18;;;2.70;98.40;3.10;99997.00;;;;343927;28;91407;-92
2023/03/01 00:02:57;;;;;;;13.43;9.27;;;2.70;98.40;3.20;100000.00;;;;342997;28;83713;-91
2023/03/01 00:03:09;;;;;;;12.85;8.80;;;2.70;98.40;3.20;99997.00;;;;341453;28;92068;-91
2023/03/01 00:03:21;;;;;;;11.57;8.82;;;2.70;98.40;3.20;100003.00;;;;343170;28;85007;-92
2023/03/01 00:03:33;;;;;;;12.07;8.93;;;2.80;98.40;3.20;100000.00;;;;338613;28;90888;-92
2023/03/01 00:03:45;;;;;;;12.50;9.27;;;2.80;98.50;3.20;99996.00;;;;341819;28;83458;-92
2023/03/01 00:03:58;;;;;;;12.50;9.15;;;2.80;98.70;3.20;99996.00;;;;341096;28;92744;-92
2023/03/01 00:04:09;;;;;;;11.45;8.80;;;2.80;98.40;3.20;99996.00;;;;341386;28;83687;-92
2023/03/01 00:04:21;;;;;;;11.60;8.85;;;2.80;98.40;3.30;100004.00;;;;343976;28;91844;-92
2023/03/01 00:04:35;;;;;;;12.18;9.40;;;2.80;98.40;3.30;100010.00;;;;343125;28;83326;-92
2023/03/01 00:04:47;;;;;;;12.43;9.48;;;2.80;98.40;3.30;100006.00;;;;342628;28;92097;-91
2023/03/01 00:04:59;;;;;;;12.90;9.75;;;2.80;98.40;3.30;100007.00;;;;343040;28;84882;-91
2023/03/01 00:05:11;;;;;;;13.30;9.73;;;2.80;98.40;3.20;100007.00;;;;341541;28;90722;-91
2023/03/01 00:05:22;;;;;;;13.35;9.73;;;2.80;98.40;3.30;100001.00;;;;343148;28;83864;-92
2023/03/01 00:05:34;;;;;;;13.98;9.98;;;2.80;98.40;3.20;100008.00;;;;344149;28;91732;-92
2023/03/01 00:05:47;;;;;;;14.70;9.85;;;2.80;98.40;3.20;99994.00;;;;340255;28;85009;-92
2023/03/01 00:05:59;;;;;;;15.27;10.00;;;2.80;98.30;3.10;100002.00;;;;343910;28;92795;-92
2023/03/01 00:06:11;;;;;;;13.70;9.43;;;2.80;98.30;3.20;100003.00;;;;342912;28;83523;-91
2023/03/01 00:06:23;;;;;;;11.63;8.88;;;2.80;98.30;3.30;100005.00;;;;342703;28;90651;-92
2023/03/01 00:06:35;;;;;;;11.77;8.75;;;2.80;98.30;3.30;100001.00;;;;343065;28;84378;-92
2023/03/01 00:06:47;;;;;;;13.15;9.38;;;2.80;98.40;3.30;100005.00;;;;342651;28;91019;-92
2023/03/01 00:06:59;;;;;;;13.00;9.45;;;2.80;98.30;3.30;99997.00;;;;341662;28;84299;-92
2023/03/01 00:07:11;;;;;;;13.23;9.27;;;2.80;98.40;3.20;100000.00;;;;344104;28;91101;-91
2023/03/01 00:07:23;;;;;;;13.73;9.45;;;2.80;98.40;3.30;100005.00;;;;344319;28;83286;-92
2023/03/01 00:07:35;;;;;;;12.75;9.40;;;2.80;98.30;3.20;100001.00;;;;342907;28;90893;-91
2023/03/01 00:07:47;;;;;;;13.65;9.68;;;2.80;98.40;3.20;100007.00;;;;343157;28;83681;-92
2023/03/01 00:07:59;;;;;;;12.90;9.63;;;2.80;98.30;3.20;99993.00;;;;342719;28;92596;-92
2023/03/01 00:08:11;;;;;;;12.50;10.10;;;2.80;98.30;3.20;100003.00;;;;343105;28;84561;-91
2023/03/01 00:08:23;;;;;;;12.25;9.05;;;2.80;98.20;3.20;99998.00;;;;342820;28;91796;-92
2023/03/01 00:08:35;;;;;;;13.10;9.43;;;2.80;98.30;3.20;99994.00;;;;343142;28;86048;-92
2023/03/01 00:08:47;;;;;;;13.57;10.07;;;2.80;98.30;3.10;99998.00;;;;341394;28;91542;-92
2023/03/01 00:08:59;;;;;;;13.80;10.60;;;2.80;98.30;3.10;100004.00;;;;344574;28;83503;-92
2023/03/01 00:09:13;;;;;;;14.57;10.52;;;2.80;98.20;3.30;100005.00;;;;341447;28;91972;-91
2023/03/01 00:09:24;;;;;;;14.45;9.43;;;2.80;98.30;3.30;100011.00;;;;339268;28;87204;-92
2023/03/01 00:09:37;;;;;;;12.95;9.45;;;2.80;98.40;3.30;100016.00;;;;342900;28;92012;-91
2023/03/01 00:09:49;;;;;;;13.07;9.73;;;2.80;98.30;3.30;100003.00;;;;343081;28;83743;-92
2023/03/01 00:10:01;;;;;;;15.98;10.25;;;2.80;98.30;3.30;100005.00;;;;341168;28;93447;-92
2023/03/01 00:10:13;;;;;;;16.10;9.82;;;2.80;98.40;3.10;100014.00;;;;341541;28;84857;-92
2023/03/01 00:10:26;;;;;;;19.27;11.05;;;2.80;98.30;3.00;100013.00;;;;338397;28;91863;-92
2023/03/01 00:10:38;;;;;;;16.13;11.25;;;2.80;98.50;3.10;100016.00;;;;341959;28;83669;-91
2023/03/01 00:10:59;;;;;;;14.98;10.73;;;2.80;98.30;3.10;100009.00;;;;341442;28;91798;-91
2023/03/01 00:11:17;;;;;;;13.75;9.27;;;2.80;98.40;3.20;100014.00;;;;343080;28;86708;-92
2023/03/01 00:11:31;;;;;;;12.23;9.05;;;2.80;98.40;3.20;100010.00;;;;339763;28;90915;-92
2023/03/01 00:11:43;;;;;;;12.80;9.90;;;2.80;98.40;3.00;100009.00;;;;343010;28;84696;-92
2023/03/01 00:11:55;;;;;;;13.45;10.05;;;2.80;98.30;3.00;100009.00;;;;339933;28;92091;-92
2023/03/01 00:12:07;;;;;;;13.63;10.00;;;2.80;98.30;3.00;100003.00;;;;342918;28;84459;-92
2023/03/01 00:12:18;;;;;;;12.98;9.57;;;2.80;98.30;3.00;100007.00;;;;342662;28;91213;-91
2023/03/01 00:12:31;;;;;;;12.80;10.00;;;2.70;98.20;2.90;100007.00;;;;341358;28;87192;-92
2023/03/01 00:12:43;;;;;;;13.10;10.40;;;2.70;98.20;3.00;100002.00;;;;343725;28;90412;-92
2023/03/01 00:12:56;;;;;;;14.15;10.88;;;2.70;98.20;2.90;100005.00;;;;342780;28;87108;-92
2023/03/01 00:13:08;;;;;;;13.75;10.63;;;2.70;98.30;3.00;100003.00;;;;341281;28;91999;-92
2023/03/01 00:13:20;;;;;;;13.18;10.32;;;2.70;98.30;3.10;99996.00;;;;342912;28;86199;-92
2023/03/01 00:13:32;;;;;;;13.00;10.00;;;2.70;98.40;3.10;100004.00;;;;341282;28;91238;-92
2023/03/01 00:13:45;;;;;;;13.15;9.93;;;2.70;98.50;3.10;100002.00;;;;341564;28;86140;-92
2023/03/01 00:14:00;;;;;;;12.63;9.70;;;2.70;98.50;3.20;100008.00;;;;341318;28;91089;-91
2023/03/01 00:14:12;;;;;;;12.68;9.80;;;2.70;98.50;3.10;100002.00;;;;342957;28;83675;-93
2023/03/01 00:14:24;;;;;;;12.50;9.63;;;2.70;98.50;3.20;100007.00;;;;341297;28;91303;-93
2023/03/01 00:14:36;;;;;;;14.63;9.52;;;2.70;98.40;3.20;100001.00;;;;343026;28;83952;-93
2023/03/01 00:14:48;;;;;;;15.25;9.68;;;2.70;98.40;3.10;100010.00;;;;342290;28;89917;-92
2023/03/01 00:15:00;;;;;;;16.55;10.43;;;2.70;98.40;3.20;100005.00;;;;341281;28;83646;-92
2023/03/01 00:15:12;;;;;;;14.35;9.85;;;2.70;98.40;3.20;100010.00;;;;342627;28;92270;-92
2023/03/01 00:15:24;;;;;;;13.65;9.60;;;2.70;98.40;3.20;99999.00;;;;342790;28;87076;-92
2023/03/01 00:15:40;;;;;;;14.23;9.93;;;2.70;98.50;3.10;100014.00;;;;341313;28;91841;-92
2023/03/01 00:15:51;;;;;;;13.88;8.73;;;2.70;98.40;3.20;100008.00;;;;341690;28;84099;-92
2023/03/01 00:16:15;;;;;;;13.55;8.68;;;2.70;98.40;3.00;100005.00;;;;342556;28;90726;-92
2023/03/01 00:16:38;;;;;;;13.20;9.35;;;2.70;98.30;2.90;100016.00;;;;342929;28;83943;-91
2023/03/01 00:16:50;;;;;;;13.77;10.15;;;2.70;98.30;3.00;100013.00;;;;341168;28;93539;-92
2023/03/01 00:17:02;;;;;;;14.05;10.55;;;2.60;98.30;3.10;100013.00;;;;342857;28;83862;-92
2023/03/01 00:17:14;;;;;;;12.88;10.07;;;2.70;98.40;3.10;100018.00;;;;341339;28;92130;-93
2023/03/01 00:17:27;;;;;;;13.68;10.25;;;2.70;98.40;3.10;100011.00;;;;340191;28;87272;-92
2023/03/01 00:17:40;;;;;;;13.40;9.98;;;2.70;98.40;3.10;100004.00;;;;339950;28;90618;-91
2023/03/01 00:17:52;;;;;;;13.70;9.95;;;2.70;98.40;3.10;100005.00;;;;344255;28;87369;-92
2023/03/01 00:18:03;;;;;;;13.48;9.73;;;2.70;98.50;3.10;100005.00;;;;341240;28;90794;-92
2023/03/01 00:18:15;;;;;;;12.32;9.63;;;2.60;98.40;3.20;100001.00;;;;342765;28;83909;-91
2023/03/01 00:18:27;;;;;;;11.73;9.60;;;2.70;98.50;3.20;100002.00;;;;340054;28;88842;-92
2023/03/01 00:18:39;;;;;;;12.40;9.95;;;2.70;98.50;3.00;100004.00;;;;341598;28;84598;-92
2023/03/01 00:18:51;;;;;;;13.43;9.80;;;2.70;98.50;2.80;100008.00;;;;342325;28;92335;-92
2023/03/01 00:19:03;;;;;;;14.48;10.13;;;2.70;98.40;2.90;99999.00;;;;340260;28;83438;-92
2023/03/01 00:19:17;;;;;;;13.80;10.35;;;2.60;98.40;3.00;100000.00;;;;341285;28;90510;-92
2023/03/01 00:19:29;;;;;;;14.48;10.65;;;2.60;98.40;3.00;100003.00;;;;341600;28;87147;-92
2023/03/01 00:19:43;;;;;;;14.35;10.38;;;2.60;98.40;2.80;100013.00;;;;344050;28;89595;-92
2023/03/01 00:19:55;;;;;;;13.25;10.32;;;2.60;98.40;2.70;100001.00;;;;341501;28;86477;-92
2023/03/01 00:20:10;;;;;;;12.75;10.25;;;2.60;98.40;2.90;100012.00;;;;341175;28;91864;-91
2023/03/01 00:20:21;;;;;;;12.40;9.63;;;2.50;98.40;2.80;100001.00;;;;342800;28;87435;-91
2023/03/01 00:20:34;;;;;;;12.70;9.63;;;2.50;98.50;2.80;99998.00;;;;339995;28;91937;-91
2023/03/01 00:20:51;;;;;;;11.40;9.23;;;2.50;98.80;2.80;99994.00;;;;340385;28;83699;-92
2023/03/01 00:21:03;;;;;;;11.65;9.05;;;2.50;98.60;2.90;100016.00;;;;340192;28;91958;-91
2023/03/01 00:21:16;;;;;;;12.57;9.25;;;2.50;98.60;2.90;100005.00;;;;343172;28;83988;-92
2023/03/01 00:21:28;;;;;;;13.40;9.75;;;2.50;98.70;2.90;100000.00;;;;343029;28;90282;-92
2023/03/01 00:21:40;;;;;;;13.27;9.98;;;2.50;98.70;3.00;99999.00;;;;341696;28;83385;-91
2023/03/01 00:21:52;;;;;;;13.93;9.98;;;2.50;98.70;3.00;100000.00;;;;344157;28;91247;-90
2023/03/01 00:22:04;;;;;;;13.13;9.50;;;2.50;98.70;3.00;100004.00;;;;342869;28;86722;-91
2023/03/01 00:22:15;;;;;;;13.65;9.73;;;2.50;98.70;3.00;100012.00;;;;342458;28;89841;-92
2023/03/01 00:22:30;;;;;;;13.38;9.80;;;2.50;98.60;3.00;100005.00;;;;341524;28;82799;-91
2023/03/01 00:22:42;;;;;;;13.40;10.02;;;2.50;98.60;2.80;100001.00;;;;342718;28;90952;-91
2023/03/01 00:22:54;;;;;;;14.90;9.90;;;2.50;98.60;2.90;100004.00;;;;341498;28;83327;-92
2023/03/01 00:23:05;;;;;;;14.55;10.15;;;2.50;98.70;2.80;100006.00;;;;343979;28;91953;-92
2023/03/01 00:23:18;;;;;;;14.13;9.65;;;2.50;98.70;2.90;100000.00;;;;344381;28;83789;-90
2023/03/01 00:23:30;;;;;;;11.98;9.02;;;2.50;98.70;2.90;100001.00;;;;344030;28;90938;-91
2023/03/01 00:23:41;;;;;;;13.15;9.15;;;2.50;98.70;2.90;100010.00;;;;341729;28;83800;-92
2023/03/01 00:23:54;;;;;;;14.02;9.27;;;2.50;98.70;3.00;100003.00;;;;342793;28;90433;-90
2023/03/01 00:24:06;;;;;;;15.45;10.13;;;2.50;98.70;3.10;100019.00;;;;343123;28;83211;-91
2023/03/01 00:24:18;;;;;;;14.02;10.05;;;2.50;98.80;3.10;100004.00;;;;346637;28;89942;-92
2023/03/01 00:24:30;;;;;;;12.77;9.68;;;2.50;98.80;3.10;100005.00;;;;345583;28;85390;-93
2023/03/01 00:24:41;;;;;;;13.00;9.75;;;2.50;98.80;3.00;100002.00;;;;345555;28;90704;-91
2023/03/01 00:24:53;;;;;;;13.75;9.90;;;2.50;98.80;3.00;100004.00;;;;344589;28;83649;-91
2023/03/01 00:25:05;;;;;;;13.10;9.93;;;2.50;98.80;3.00;100009.00;;;;342894;28;91570;-91
2023/03/01 00:25:18;;;;;;;12.75;9.55;;;2.50;98.80;3.10;100002.00;;;;343178;28;83946;-91
2023/03/01 00:25:29;;;;;;;13.00;9.10;;;2.50;98.80;3.10;100005.00;;;;342759;28;90862;-91
2023/03/01 00:25:42;;;;;;;13.73;9.48;;;2.50;98.80;2.90;99994.00;;;;344726;28;83567;-92
2023/03/01 00:25:54;;;;;;;13.05;9.63;;;2.60;98.70;2.90;100001.00;;;;344052;28;91323;-91
2023/03/01 00:26:09;;;;;;;12.38;9.52;;;2.50;98.70;3.00;99999.00;;;;345909;28;83777;-91
2023/03/01 00:26:22;;;;;;;12.57;9.45;;;2.50;98.80;3.10;99998.00;;;;344065;28;90837;-91
2023/03/01 00:26:34;;;;;;;13.02;9.27;;;2.60;98.80;3.10;100006.00;;;;344454;28;83328;-92
2023/03/01 00:26:46;;;;;;;13.85;9.90;;;2.50;98.80;3.10;100008.00;;;;343803;28;90660;-92
2023/03/01 00:26:58;;;;;;;13.15;9.80;;;2.60;98.80;3.10;100003.00;;;;344228;28;83424;-92
2023/03/01 00:27:10;;;;;;;13.65;10.30;;;2.60;98.80;3.20;100006.00;;;;342310;28;90874;-92
2023/03/01 00:27:22;;;;;;;13.63;10.50;;;2.60;98.80;3.10;100001.00;;;;342974;28;84410;-91
2023/03/01 00:27:33;;;;;;;13.93;10.55;;;2.60;98.70;3.10;100006.00;;;;342710;28;91463;-91
2023/03/01 00:27:48;;;;;;;14.25;10.38;;;2.60;98.70;3.10;100005.00;;;;344163;28;85798;-92
2023/03/01 00:28:00;;;;;;;13.43;9.75;;;2.60;98.70;3.10;100003.00;;;;343310;28;92546;-91
2023/03/01 00:28:12;;;;;;;13.35;9.63;;;2.60;98.60;3.10;100002.00;;;;344025;28;87009;-91
2023/03/01 00:28:24;;;;;;;13.90;9.65;;;2.60;98.60;3.10;99988.00;;;;342741;28;90922;-91
2023/03/01 00:28:36;;;;;;;14.18;9.70;;;2.70;98.60;3.10;99997.00;;;;341630;28;83641;-91
2023/03/01 00:28:48;;;;;;;13.52;9.43;;;2.60;98.50;3.10;99999.00;;;;345206;28;91202;-92
2023/03/01 00:29:00;;;;;;;12.70;9.18;;;2.60;98.50;3.00;99999.00;;;;342971;28;83456;-91
2023/03/01 00:29:12;;;;;;;12.50;9.07;;;2.60;98.40;3.10;99997.00;;;;342221;28;92460;-91
2023/03/01 00:29:24;;;;;;;12.70;9.15;;;2.60;98.40;3.10;100003.00;;;;341412;28;84385;-92
2023/03/01 00:29:36;;;;;;;14.05;9.82;;;2.60;98.50;3.00;100010.00;;;;342433;28;90953;-91
2023/03/01 00:29:48;;;;;;;13.85;9.38;;;2.60;98.40;3.00;100008.00;;;;341471;28;82321;-92
2023/03/01 00:30:00;;;;;;;12.55;8.90;;;2.60;98.40;3.00;100001.00;;;;343752;28;90998;-92
2023/03/01 00:30:12;;;;;;;11.82;9.00;;;2.60;98.40;3.00;100003.00;;;;341436;28;84087;-93
2023/03/01 00:30:24;;;;;;;12.13;9.15;;;2.70;98.50;2.80;100001.00;;;;342344;28;91000;-92
2023/03/01 00:30:36;;;;;;;12.55;9.18;;;2.60;98.40;2.80;99999.00;;;;344390;28;84486;-91
2023/03/01 00:30:48;;;;;;;12.85;9.30;;;2.50;98.40;2.80;100007.00;;;;342471;28;90917;-92
2023/03/01 00:31:08;;;;;;;12.93;9.80;;;2.60;98.40;2.90;100006.00;;;;342867;28;83127;-91
2023/03/01 00:31:22;;;;;;;14.30;10.77;;;2.50;98.60;2.90;100009.00;;;;342392;28;92032;-90
2023/03/01 00:31:34;;;;;;;13.32;10.13;;;2.50;98.60;3.00;100016.00;;;;344133;28;83652;-92
2023/03/01 00:31:46;;;;;;;12.40;9.43;;;2.50;98.60;3.00;100008.00;;;;342363;28;90750;-92
2023/03/01 00:31:58;;;;;;;12.95;9.88;;;2.50;98.70;3.00;100002.00;;;;343980;28;86022;-93
2023/03/01 00:32:10;;;;;;;13.30;10.32;;;2.50;98.70;3.00;100002.00;;;;339611;28;90534;-92
2023/03/01 00:32:22;;;;;;;13.65;10.48;;;2.50;98.70;3.00;100006.00;;;;342515;28;84800;-91
2023/03/01 00:32:34;;;;;;;13.82;9.95;;;2.50;98.70;3.00;100001.00;;;;340758;28;90935;-93
2023/03/01 00:32:46;;;;;;;12.38;9.18;;;2.50;98.70;3.00;100011.00;;;;342316;28;86595;-91
2023/03/01 00:32:58;;;;;;;12.48;9.35;;;2.50;98.60;2.90;99998.00;;;;340812;28;91891;-92
2023/03/01 00:33:10;;;;;;;12.88;9.63;;;2.60;98.70;3.00;100007.00;;;;343429;28;83621;-91
2023/03/01 00:33:21;;;;;;;14.57;10.43;;;2.50;98.70;2.90;99999.00;;;;342443;28;93056;-90
2023/03/01 00:33:33;;;;;;;14.82;10.45;;;2.50;98.60;2.80;100007.00;;;;343093;28;83809;-92
2023/03/01 00:33:46;;;;;;;14.95;10.50;;;2.50;98.60;2.80;99995.00;;;;341260;28;91548;-92
2023/03/01 00:34:03;;;;;;;13.93;10.35;;;2.50;98.70;3.00;100002.00;;;;341598;28;87563;-92
2023/03/01 00:34:14;;;;;;;13.38;10.30;;;2.50;98.70;2.90;100000.00;;;;341341;28;91138;-92
2023/03/01 00:34:26;;;;;;;13.90;10.45;;;2.50;98.70;2.90;100004.00;;;;341446;28;87522;-92
2023/03/01 00:34:38;;;;;;;13.68;10.38;;;2.50;98.70;2.90;99993.00;;;;342740;28;91764;-92
2023/03/01 00:34:55;;;;;;;13.68;10.08;;;2.50;98.70;3.00;99997.00;;;;342721;28;87840;-92
2023/03/01 00:35:07;;;;;;;13.48;10.10;;;2.50;99.00;3.00;100008.00;;;;342449;28;90893;-91
2023/03/01 00:35:19;;;;;;;14.00;9.73;;;2.50;98.70;3.00;100002.00;;;;341555;28;86200;-92
2023/03/01 00:35:33;;;;;;;13.32;9.63;;;2.50;98.80;3.00;99999.00;;;;341177;28;91484;-92
2023/03/01 00:35:45;;;;;;;12.52;9.98;;;2.50;98.80;3.00;99997.00;;;;343087;28;83694;-92
2023/03/01 00:35:59;;;;;;;12.15;9.55;;;2.50;98.70;3.00;99997.00;;;;341319;28;91264;-92
2023/03/01 00:36:13;;;;;;;12.50;9.50;;;2.50;98.70;3.00;99993.00;;;;342827;28;86460;-92
2023/03/01 00:36:27;;;;;;;12.02;9.30;;;2.50;98.70;3.00;99993.00;;;;341371;28;88383;-91
2023/03/01 00:36:40;;;;;;;11.90;9.18;;;2.50;98.70;3.00;99995.00;;;;343035;28;85091;-91
2023/03/01 00:36:52;;;;;;;11.27;9.32;;;2.50;98.70;3.00;99993.00;;;;342556;28;91773;-91
2023/03/01 00:37:04;;;;;;;12.73;9.85;;;2.50;99.00;2.90;100003.00;;;;342831;28;83980;-91
2023/03/01 00:37:16;;;;;;;14.02;10.02;;;2.50;98.70;2.90;99993.00;;;;342503;28;91322;-92
2023/03/01 00:37:28;;;;;;;14.00;9.68;;;2.50;98.70;2.90;100001.00;;;;341469;28;84980;-92
2023/03/01 00:37:41;;;;;;;12.98;9.27;;;2.50;98.80;3.00;99996.00;;;;341173;28;91831;-91
2023/03/01 00:37:53;;;;;;;12.48;9.13;;;2.50;98.80;3.00;100003.00;;;;341689;28;83392;-91
2023/03/01 00:38:05;;;;;;;11.30;8.63;;;2.50;98.70;3.00;100001.00;;;;341250;28;91738;-91
2023/03/01 00:38:17;;;;;;;11.13;8.68;;;2.50;98.70;2.80;100001.00;;;;341697;28;85336;-91
2023/03/01 00:38:29;;;;;;;12.40;9.35;;;2.50;98.70;2.70;100002.00;;;;342590;28;91794;-91
2023/03/01 00:38:43;;;;;;;14.60;10.25;;;2.40;98.70;2.80;99997.00;;;;343025;28;83464;-92
2023/03/01 00:38:55;;;;;;;14.45;10.20;;;2.50;98.70;2.90;99993.00;;;;342563;28;90645;-91
2023/03/01 00:39:11;;;;;;;12.88;9.40;;;2.50;98.70;2.90;100002.00;;;;342828;28;87476;-91
2023/03/01 00:39:23;;;;;;;12.60;9.57;;;2.50;98.80;3.00;100003.00;;;;342577;28;90818;-92
2023/03/01 00:39:35;;;;;;;12.93;9.63;;;2.50;98.80;3.00;100001.00;;;;344262;28;84734;-92
2023/03/01 00:39:47;;;;;;;13.35;10.05;;;2.50;98.80;3.10;99997.00;;;;342570;28;91583;-91
2023/03/01 00:39:59;;;;;;;12.93;9.60;;;2.50;98.80;3.00;99996.00;;;;344315;28;84838;-92
2023/03/01 00:40:12;;;;;;;13.77;9.60;;;2.50;98.80;3.10;100003.00;;;;342673;28;89042;-92
2023/03/01 00:40:25;;;;;;;14.00;9.38;;;2.50;98.80;3.10;99992.00;;;;340198;28;83384;-92
2023/03/01 00:40:37;;;;;;;13.55;9.32;;;2.50;98.80;3.10;100004.00;;;;341188;28;89035;-92
2023/03/01 00:40:49;;;;;;;12.07;9.07;;;2.60;98.80;3.10;99992.00;;;;341558;28;83800;-91
2023/03/01 00:41:09;;;;;;;12.90;9.60;;;2.50;98.80;3.10;99999.00;;;;342578;28;91574;-92
2023/03/01 00:41:22;;;;;;;14.23;9.90;;;2.60;98.80;3.10;100001.00;;;;341620;28;84383;-91
2023/03/01 00:41:34;;;;;;;12.80;9.52;;;2.60;98.80;3.00;99998.00;;;;341184;28;91524;-91
2023/03/01 00:41:46;;;;;;;12.35;9.52;;;2.60;98.80;3.00;100003.00;;;;341669;28;83791;-92
2023/03/01 00:41:58;;;;;;;14.55;10.02;;;2.60;98.80;3.00;99988.00;;;;342524;28;92365;-91
2023/03/01 00:42:10;;;;;;;15.98;10.30;;;2.60;98.80;2.90;99998.00;;;;342925;28;84718;-92
2023/03/01 00:42:22;;;;;;;15.18;10.10;;;2.60;98.70;3.00;100004.00;;;;339980;28;88148;-92
2023/03/01 00:42:34;;;;;;;13.68;9.82;;;2.60;98.70;2.70;99992.00;;;;344057;28;87637;-91
2023/03/01 00:42:46;;;;;;;14.40;10.45;;;2.60;98.70;2.70;100011.00;;;;340936;28;91837;-91
2023/03/01 00:42:58;;;;;;;14.82;10.52;;;2.50;98.60;2.80;99997.00;;;;342878;28;84222;-91
2023/03/01 00:43:10;;;;;;;13.45;9.98;;;2.50;98.60;2.90;100001.00;;;;341304;28;91738;-92
2023/03/01 00:43:22;;;;;;;12.65;9.57;;;2.50;98.70;2.90;100008.00;;;;341297;28;84732;-92
2023/03/01 00:43:36;;;;;;;12.07;9.20;;;2.50;98.70;2.90;100015.00;;;;342347;28;91319;-92
2023/03/01 00:43:49;;;;;;;11.82;9.15;;;2.50;98.70;2.90;100009.00;;;;340212;28;83632;-91
2023/03/01 00:44:01;;;;;;;12.60;9.93;;;2.50;98.70;2.90;100013.00;;;;342553;28;91786;-92
2023/03/01 00:44:12;;;;;;;13.38;9.88;;;2.50;98.80;2.90;100003.00;;;;341536;28;85200;-92
2023/03/01 00:44:24;;;;;;;13.02;9.50;;;2.50;98.70;3.00;100011.00;;;;342619;28;90854;-91
2023/03/01 00:44:36;;;;;;;13.23;9.88;;;2.50;98.80;2.90;100011.00;;;;342903;28;84368;-92
2023/03/01 00:44:48;;;;;;;13.75;10.68;;;2.50;98.80;3.00;100005.00;;;;339846;28;91002;-92
2023/03/01 00:45:00;;;;;;;14.57;10.75;;;2.50;98.80;3.00;100010.00;;;;341490;28;84717;-91
2023/03/01 00:45:13;;;;;;;14.90;10.18;;;2.50;98.80;2.90;100009.00;;;;341162;28;91937;-91
2023/03/01 00:45:25;;;;;;;15.00;10.20;;;2.50;98.80;2.90;100008.00;;;;341465;28;86325;-92
2023/03/01 00:45:37;;;;;;;14.93;10.65;;;2.50;98.70;2.80;100004.00;;;;339965;28;89950;-92
2023/03/01 00:45:49;;;;;;;14.52;10.58;;;2.50;98.70;2.80;99997.00;;;;342606;28;86687;-92
2023/03/01 00:46:21;;;;;;;13.30;10.38;;;2.50;98.70;2.90;99997.00;;;;341111;28;91727;-91
2023/03/01 00:46:34;;;;;;;14.80;10.85;;;2.50;98.70;2.90;100002.00;;;;341429;28;87177;-92
2023/03/01 00:46:46;;;;;;;14.07;10.02;;;2.50;98.70;2.90;100002.00;;;;341247;28;91820;-92
2023/03/01 00:46:58;;;;;;;12.93;9.43;;;2.40;98.70;2.90;100008.00;;;;343049;28;83339;-91
2023/03/01 00:47:10;;;;;;;12.56;9.44;;;2.50;98.80;2.90;100005.00;;;;341418;28;90509;-92
2023/03/01 00:47:22;;;;;;;15.38;10.75;;;2.50;98.80;2.90;100013.00;;;;341683;28;82387;-92
2023/03/01 00:47:34;;;;;;;15.38;10.65;;;2.50;98.80;2.90;100004.00;;;;343862;28;90588;-91
2023/03/01 00:47:47;;;;;;;13.85;9.68;;;2.50;98.80;2.90;99998.00;;;;341549;28;86871;-91
2023/03/01 00:47:58;;;;;;;14.70;9.80;;;2.50;98.70;2.90;100019.00;;;;339886;28;91210;-91
2023/03/01 00:48:10;;;;;;;17.15;10.30;;;2.50;99.00;2.90;100014.00;;;;341592;28;84582;-90
2023/03/01 00:48:24;;;;;;;16.02;9.73;;;2.50;98.70;2.70;99992.00;;;;339768;28;92573;-92
2023/03/01 00:48:36;;;;;;;14.82;9.90;;;2.50;98.70;2.60;99998.00;;;;342657;28;86612;-92
2023/03/01 00:48:48;;;;;;;14.85;10.45;;;2.40;98.70;2.60;100011.00;;;;342475;28;92343;-92
2023/03/01 00:49:01;;;;;;;14.50;10.02;;;2.40;98.70;2.70;100010.00;;;;342976;28;83914;-92
2023/03/01 00:49:14;;;;;;;13.27;9.95;;;2.40;98.80;2.80;100008.00;;;;341337;28;91229;-92
2023/03/01 00:49:27;;;;;;;13.70;10.35;;;2.40;98.80;2.60;100013.00;;;;342761;28;87293;-91
2023/03/01 00:49:39;;;;;;;14.98;10.75;;;2.40;98.90;2.50;100004.00;;;;343528;28;92416;-91
2023/03/01 00:49:51;;;;;;;14.65;10.82;;;2.30;98.90;2.50;100010.00;;;;342888;28;86499;-91
2023/03/01 00:50:03;;;;;;;14.50;10.70;;;2.30;98.90;2.50;100010.00;;;;343943;28;91404;-91
2023/03/01 00:50:15;;;;;;;14.38;10.45;;;2.30;99.00;2.40;100008.00;;;;341466;28;86645;-91
2023/03/01 00:50:27;;;;;;;14.44;10.72;;;2.20;99.00;2.40;100003.00;;;;341039;28;92795;-90
2023/03/01 00:50:39;;;;;;;14.55;10.75;;;2.20;99.00;2.50;100010.00;;;;341443;28;86019;-91
2023/03/01 00:50:51;;;;;;;14.75;10.85;;;2.20;99.10;2.30;100006.00;;;;342409;28;91233;-91
2023/03/01 00:51:08;;;;;;;13.73;10.55;;;2.10;99.40;2.40;100003.00;;;;341517;28;87287;-91
2023/03/01 00:51:23;;;;;;;16.35;10.60;;;2.10;99.20;2.50;100008.00;;;;343992;28;92307;-92
2023/03/01 00:51:35;;;;;;;15.75;10.20;;;2.10;99.30;2.60;100006.00;;;;344063;28;85912;-91
2023/03/01 00:51:47;;;;;;;12.75;9.90;;;2.10;99.30;2.60;100001.00;;;;342639;28;92106;-91
2023/03/01 00:51:59;;;;;;;13.20;10.02;;;2.10;99.30;2.60;99997.00;;;;341320;28;86279;-91
2023/03/01 00:52:11;;;;;;;13.27;10.25;;;2.10;99.30;2.60;99999.00;;;;342512;28;92143;-91
2023/03/01 00:52:23;;;;;;;13.70;10.65;;;2.10;99.40;2.70;99995.00;;;;342863;28;86116;-91
2023/03/01 00:52:35;;;;;;;13.55;10.48;;;2.10;99.40;2.70;99997.00;;;;341148;28;91860;-92
2023/03/01 00:52:47;;;;;;;12.98;9.60;;;2.20;99.40;2.70;99995.00;;;;342663;28;85069;-92
2023/03/01 00:52:59;;;;;;;12.88;9.13;;;2.10;99.40;2.70;99993.00;;;;341097;28;90948;-91
2023/03/01 00:53:10;;;;;;;13.20;9.48;;;2.20;99.40;2.80;99989.00;;;;344354;28;85269;-91
2023/03/01 00:53:22;;;;;;;13.43;10.00;;;2.10;99.40;2.70;99991.00;;;;343988;28;92166;-90
2023/03/01 00:53:34;;;;;;;12.93;10.20;;;2.20;99.40;2.60;99997.00;;;;342874;28;85200;-92
2023/03/01 00:53:46;;;;;;;12.38;9.75;;;2.20;99.40;2.60;99992.00;;;;341278;28;90599;-91
2023/03/01 00:54:00;;;;;;;12.98;9.30;;;2.20;99.40;2.50;99996.00;;;;341695;28;83883;-91
2023/03/01 00:54:12;;;;;;;13.65;9.25;;;2.20;99.40;2.40;100001.00;;;;341277;28;90774;-92
2023/03/01 00:54:24;;;;;;;13.88;9.48;;;2.10;99.40;2.30;99988.00;;;;342961;28;83720;-91
2023/03/01 00:54:36;;;;;;;13.68;9.60;;;2.10;99.40;2.40;99994.00;;;;341214;28;93175;-91
2023/03/01 00:54:48;;;;;;;13.80;9.68;;;2.10;99.40;2.50;99990.00;;;;342912;28;83464;-91
2023/03/01 00:55:00;;;;;;;12.85;9.43;;;2.10;99.50;2.50;99993.00;;;;341238;28;91798;-92
2023/03/01 00:55:12;;;;;;;12.52;9.32;;;2.10;99.50;2.60;99997.00;;;;341526;28;85079;-90
2023/03/01 00:55:25;;;;;;;14.15;10.40;;;2.10;99.60;2.60;99991.00;;;;339846;28;92229;-91
2023/03/01 00:55:36;;;;;;;15.55;10.90;;;2.10;99.60;2.70;99990.00;;;;342851;28;85056;-91
2023/03/01 00:55:48;;;;;;;14.70;10.77;;;2.10;99.60;2.60;99993.00;;;;340069;28;90479;-91
2023/03/01 00:56:00;;;;;;;14.25;10.40;;;2.10;99.60;2.50;100000.00;;;;344030;28;85520;-92
2023/03/01 00:56:13;;;;;;;14.48;10.40;;;2.10;99.50;2.70;99994.00;;;;342530;28;89578;-91
2023/03/01 00:56:25;;;;;;;14.88;10.70;;;2.10;99.60;2.70;100000.00;;;;344189;28;87632;-91
2023/03/01 00:56:37;;;;;;;14.40;10.38;;;2.10;99.60;2.70;99991.00;;;;341202;28;91627;-91
2023/03/01 00:56:49;;;;;;;13.73;10.38;;;2.10;99.60;2.70;99989.00;;;;341433;28;86713;-91